ASL684 LYBE-LYTV
Flight info
| Callsign | ASL684 |
|---|---|
| Flight time | 0h 53m |
| Altitude | 17000 |
| Route | VAL4F/12L VAL N732 POD |
| Aircraft | AT76/M-SDFGIRY/S |
Departure
| Time | 2026-05-08 14:32 |
|---|---|
| Airport | Belgrade Nikola Tesla Airport (LYBE) |
Arrival
| Time | 2026-05-08 15:26 |
|---|---|
| Airport | Tivat Airport (LYTV) |
| Time | Latitude | Longitude | Altitude | Speed | Heading |
|---|---|---|---|---|---|
| 2026-05-08 14:05 | 44.81815 | 20.29168 | 305 ft | 0 kts | 302° |
| 2026-05-08 14:20 | 44.81813 | 20.29171 | 305 ft | 3 kts | 302° |
| 2026-05-08 14:21 | 44.81799 | 20.29203 | 303 ft | 4 kts | 302° |
| 2026-05-08 14:21 | 44.81788 | 20.29228 | 304 ft | 4 kts | 318° |
| 2026-05-08 14:21 | 44.81769 | 20.29235 | 303 ft | 4 kts | 27° |
| 2026-05-08 14:21 | 44.81751 | 20.29221 | 304 ft | 1 kts | 32° |
| 2026-05-08 14:22 | 44.81751 | 20.29220 | 304 ft | 0 kts | 32° |
| 2026-05-08 14:25 | 44.81752 | 20.29222 | 303 ft | 2 kts | 32° |
| 2026-05-08 14:25 | 44.81774 | 20.29242 | 304 ft | 6 kts | 33° |
| 2026-05-08 14:26 | 44.81813 | 20.29276 | 304 ft | 7 kts | 31° |
| 2026-05-08 14:26 | 44.81861 | 20.29318 | 303 ft | 9 kts | 33° |
| 2026-05-08 14:26 | 44.81916 | 20.29367 | 306 ft | 10 kts | 31° |
| 2026-05-08 14:26 | 44.81976 | 20.29419 | 304 ft | 10 kts | 32° |
| 2026-05-08 14:27 | 44.82039 | 20.29473 | 304 ft | 11 kts | 31° |
| 2026-05-08 14:27 | 44.82100 | 20.29528 | 304 ft | 10 kts | 30° |
| 2026-05-08 14:27 | 44.82153 | 20.29503 | 304 ft | 8 kts | 306° |
| 2026-05-08 14:27 | 44.82179 | 20.29446 | 306 ft | 7 kts | 302° |
| 2026-05-08 14:28 | 44.82204 | 20.29388 | 306 ft | 7 kts | 302° |
| 2026-05-08 14:28 | 44.82231 | 20.29328 | 306 ft | 7 kts | 302° |
| 2026-05-08 14:28 | 44.82258 | 20.29268 | 305 ft | 8 kts | 302° |
| 2026-05-08 14:28 | 44.82293 | 20.29188 | 306 ft | 11 kts | 301° |
| 2026-05-08 14:29 | 44.82339 | 20.29085 | 303 ft | 14 kts | 302° |
| 2026-05-08 14:29 | 44.82393 | 20.28960 | 305 ft | 16 kts | 301° |
| 2026-05-08 14:29 | 44.82457 | 20.28863 | 307 ft | 13 kts | 338° |
| 2026-05-08 14:29 | 44.82549 | 20.28890 | 304 ft | 15 kts | 36° |
| 2026-05-08 14:30 | 44.82563 | 20.28908 | 305 ft | 0 kts | 44° |
| 2026-05-08 14:30 | 44.82572 | 20.28921 | 304 ft | 6 kts | 48° |
| 2026-05-08 14:30 | 44.82608 | 20.29002 | 303 ft | 13 kts | 69° |
| 2026-05-08 14:31 | 44.82614 | 20.29156 | 303 ft | 18 kts | 101° |
| 2026-05-08 14:31 | 44.82592 | 20.29230 | 303 ft | 0 kts | 121° |
| 2026-05-08 14:32 | 44.82154 | 20.30216 | 302 ft | 120 kts | 122° |
| 2026-05-08 14:32 | 44.81641 | 20.31376 | 436 ft | 149 kts | 122° |
| 2026-05-08 14:32 | 44.81117 | 20.32647 | 962 ft | 155 kts | 118° |
| 2026-05-08 14:32 | 44.80539 | 20.33932 | 1562 ft | 156 kts | 132° |
| 2026-05-08 14:33 | 44.79537 | 20.34458 | 2153 ft | 162 kts | 184° |
| 2026-05-08 14:33 | 44.78402 | 20.34316 | 2673 ft | 165 kts | 185° |
| 2026-05-08 14:33 | 44.77248 | 20.34212 | 3070 ft | 170 kts | 182° |
| 2026-05-08 14:33 | 44.76017 | 20.34160 | 3373 ft | 180 kts | 180° |
| 2026-05-08 14:34 | 44.74763 | 20.34206 | 3803 ft | 181 kts | 176° |
| 2026-05-08 14:34 | 44.73521 | 20.34240 | 4187 ft | 181 kts | 193° |
| 2026-05-08 14:34 | 44.72395 | 20.33471 | 4586 ft | 181 kts | 209° |
| 2026-05-08 14:34 | 44.71217 | 20.32646 | 4757 ft | 198 kts | 205° |
| 2026-05-08 14:35 | 44.69915 | 20.31885 | 5035 ft | 204 kts | 201° |
| 2026-05-08 14:35 | 44.68573 | 20.31212 | 5408 ft | 205 kts | 199° |
| 2026-05-08 14:35 | 44.67218 | 20.30582 | 5774 ft | 204 kts | 198° |
| 2026-05-08 14:35 | 44.65883 | 20.29955 | 6115 ft | 205 kts | 198° |
| 2026-05-08 14:36 | 44.64528 | 20.29312 | 6455 ft | 205 kts | 199° |
| 2026-05-08 14:36 | 44.63175 | 20.28667 | 6783 ft | 205 kts | 199° |
| 2026-05-08 14:36 | 44.61823 | 20.28018 | 7098 ft | 206 kts | 199° |
| 2026-05-08 14:36 | 44.60464 | 20.27366 | 7403 ft | 206 kts | 198° |
| 2026-05-08 14:37 | 44.59101 | 20.26714 | 7715 ft | 207 kts | 198° |
| 2026-05-08 14:37 | 44.57740 | 20.26063 | 8011 ft | 207 kts | 198° |
| 2026-05-08 14:37 | 44.56391 | 20.25419 | 8324 ft | 207 kts | 198° |
| 2026-05-08 14:37 | 44.55020 | 20.24771 | 8627 ft | 208 kts | 198° |
| 2026-05-08 14:38 | 44.53651 | 20.24116 | 8930 ft | 209 kts | 198° |
| 2026-05-08 14:38 | 44.52271 | 20.23458 | 9228 ft | 209 kts | 198° |
| 2026-05-08 14:38 | 44.50889 | 20.22798 | 9524 ft | 210 kts | 197° |
| 2026-05-08 14:38 | 44.49500 | 20.22138 | 9808 ft | 210 kts | 197° |
| 2026-05-08 14:39 | 44.48123 | 20.21484 | 10073 ft | 211 kts | 197° |
| 2026-05-08 14:39 | 44.46728 | 20.20822 | 10318 ft | 212 kts | 197° |
| 2026-05-08 14:39 | 44.45324 | 20.20153 | 10567 ft | 214 kts | 197° |
| 2026-05-08 14:39 | 44.43909 | 20.19483 | 10815 ft | 215 kts | 197° |
| 2026-05-08 14:40 | 44.42491 | 20.18809 | 11056 ft | 216 kts | 197° |
| 2026-05-08 14:40 | 44.41059 | 20.18130 | 11293 ft | 217 kts | 197° |
| 2026-05-08 14:40 | 44.39628 | 20.17451 | 11525 ft | 217 kts | 197° |
| 2026-05-08 14:40 | 44.38187 | 20.16768 | 11754 ft | 219 kts | 197° |
| 2026-05-08 14:41 | 44.36740 | 20.16082 | 11999 ft | 220 kts | 197° |
| 2026-05-08 14:41 | 44.35305 | 20.15402 | 12228 ft | 221 kts | 197° |
| 2026-05-08 14:41 | 44.33847 | 20.14711 | 12462 ft | 222 kts | 197° |
| 2026-05-08 14:41 | 44.32381 | 20.14019 | 12712 ft | 223 kts | 197° |
| 2026-05-08 14:42 | 44.30909 | 20.13324 | 12952 ft | 224 kts | 197° |
| 2026-05-08 14:42 | 44.29427 | 20.12630 | 13195 ft | 225 kts | 197° |
| 2026-05-08 14:42 | 44.27937 | 20.11922 | 13430 ft | 225 kts | 197° |
| 2026-05-08 14:42 | 44.26449 | 20.11217 | 13660 ft | 226 kts | 197° |
| 2026-05-08 14:43 | 44.24971 | 20.10522 | 13856 ft | 227 kts | 197° |
| 2026-05-08 14:43 | 44.23466 | 20.09812 | 14055 ft | 228 kts | 197° |
| 2026-05-08 14:43 | 44.21956 | 20.09098 | 14244 ft | 229 kts | 197° |
| 2026-05-08 14:43 | 44.20442 | 20.08385 | 14422 ft | 230 kts | 197° |
| 2026-05-08 14:44 | 44.18924 | 20.07671 | 14598 ft | 230 kts | 196° |
| 2026-05-08 14:44 | 44.17418 | 20.06965 | 14774 ft | 231 kts | 197° |
| 2026-05-08 14:44 | 44.15887 | 20.06246 | 14942 ft | 232 kts | 196° |
| 2026-05-08 14:44 | 44.14352 | 20.05524 | 15106 ft | 233 kts | 196° |
| 2026-05-08 14:45 | 44.12819 | 20.04802 | 15255 ft | 233 kts | 196° |
| 2026-05-08 14:45 | 44.11274 | 20.04077 | 15414 ft | 234 kts | 196° |
| 2026-05-08 14:45 | 44.09726 | 20.03351 | 15583 ft | 235 kts | 196° |
| 2026-05-08 14:45 | 44.08177 | 20.02626 | 15758 ft | 235 kts | 196° |
| 2026-05-08 14:46 | 44.06619 | 20.01895 | 15922 ft | 236 kts | 195° |
| 2026-05-08 14:46 | 44.05080 | 20.01176 | 16083 ft | 236 kts | 196° |
| 2026-05-08 14:46 | 44.03521 | 20.00442 | 16249 ft | 237 kts | 196° |
| 2026-05-08 14:46 | 44.01955 | 19.99710 | 16420 ft | 237 kts | 196° |
| 2026-05-08 14:47 | 44.00391 | 19.98981 | 16565 ft | 238 kts | 196° |
| 2026-05-08 14:47 | 43.98819 | 19.98244 | 16704 ft | 238 kts | 196° |
| 2026-05-08 14:47 | 43.97253 | 19.97512 | 16873 ft | 237 kts | 196° |
| 2026-05-08 14:47 | 43.95674 | 19.96776 | 16948 ft | 240 kts | 196° |
| 2026-05-08 14:48 | 43.94096 | 19.96038 | 16985 ft | 244 kts | 196° |
| 2026-05-08 14:48 | 43.92475 | 19.95280 | 17002 ft | 247 kts | 196° |
| 2026-05-08 14:48 | 43.90827 | 19.94512 | 17009 ft | 250 kts | 196° |
| 2026-05-08 14:48 | 43.89170 | 19.93742 | 17015 ft | 252 kts | 196° |
| 2026-05-08 14:49 | 43.87494 | 19.92960 | 17015 ft | 255 kts | 196° |
| 2026-05-08 14:49 | 43.85809 | 19.92173 | 17017 ft | 256 kts | 196° |
| 2026-05-08 14:49 | 43.84132 | 19.91395 | 17014 ft | 258 kts | 196° |
| 2026-05-08 14:49 | 43.82426 | 19.90602 | 17018 ft | 259 kts | 196° |
| 2026-05-08 14:50 | 43.80714 | 19.89806 | 17014 ft | 259 kts | 195° |
| 2026-05-08 14:50 | 43.79003 | 19.89014 | 17012 ft | 260 kts | 196° |
| 2026-05-08 14:50 | 43.77289 | 19.88217 | 17014 ft | 260 kts | 196° |
| 2026-05-08 14:50 | 43.75571 | 19.87421 | 17013 ft | 260 kts | 196° |
| 2026-05-08 14:51 | 43.73855 | 19.86628 | 17014 ft | 259 kts | 196° |
| 2026-05-08 14:51 | 43.72163 | 19.85845 | 17017 ft | 259 kts | 196° |
| 2026-05-08 14:51 | 43.70451 | 19.85053 | 17017 ft | 259 kts | 195° |
| 2026-05-08 14:51 | 43.68740 | 19.84259 | 17015 ft | 259 kts | 195° |
| 2026-05-08 14:52 | 43.67022 | 19.83466 | 17014 ft | 259 kts | 195° |
| 2026-05-08 14:52 | 43.63596 | 19.81888 | 17016 ft | 259 kts | 195° |
| 2026-05-08 14:52 | 43.61884 | 19.81103 | 17013 ft | 259 kts | 195° |
| 2026-05-08 14:53 | 43.60196 | 19.80327 | 17018 ft | 258 kts | 195° |
| 2026-05-08 14:53 | 43.58490 | 19.79543 | 17018 ft | 258 kts | 196° |
| 2026-05-08 14:53 | 43.56777 | 19.78753 | 17013 ft | 258 kts | 196° |
| 2026-05-08 14:53 | 43.55073 | 19.77969 | 17016 ft | 258 kts | 196° |
| 2026-05-08 14:54 | 43.53366 | 19.77193 | 17021 ft | 258 kts | 195° |
| 2026-05-08 14:54 | 43.51654 | 19.76416 | 17015 ft | 258 kts | 195° |
| 2026-05-08 14:54 | 43.49967 | 19.75649 | 17015 ft | 258 kts | 196° |
| 2026-05-08 14:54 | 43.48264 | 19.74870 | 17018 ft | 258 kts | 196° |
| 2026-05-08 14:55 | 43.46560 | 19.74088 | 17027 ft | 258 kts | 196° |
| 2026-05-08 14:55 | 43.44852 | 19.73304 | 17012 ft | 259 kts | 196° |
| 2026-05-08 14:55 | 43.43144 | 19.72517 | 17015 ft | 258 kts | 196° |
| 2026-05-08 14:55 | 43.41435 | 19.71733 | 17022 ft | 259 kts | 195° |
| 2026-05-08 14:56 | 43.39726 | 19.70951 | 17014 ft | 259 kts | 196° |
| 2026-05-08 14:56 | 43.38031 | 19.70178 | 17016 ft | 259 kts | 196° |
| 2026-05-08 14:56 | 43.36314 | 19.69394 | 17013 ft | 259 kts | 196° |
| 2026-05-08 14:56 | 43.34600 | 19.68611 | 17006 ft | 259 kts | 196° |
| 2026-05-08 14:57 | 43.32890 | 19.67828 | 17009 ft | 258 kts | 196° |
| 2026-05-08 14:57 | 43.31187 | 19.67047 | 17020 ft | 258 kts | 196° |
| 2026-05-08 14:57 | 43.29481 | 19.66267 | 17002 ft | 258 kts | 196° |
| 2026-05-08 14:57 | 43.27793 | 19.65501 | 17016 ft | 259 kts | 196° |
| 2026-05-08 14:58 | 43.26084 | 19.64723 | 17034 ft | 260 kts | 196° |
| 2026-05-08 14:58 | 43.24358 | 19.63938 | 17024 ft | 262 kts | 196° |
| 2026-05-08 14:58 | 43.22621 | 19.63147 | 17014 ft | 263 kts | 197° |
| 2026-05-08 14:58 | 43.20874 | 19.62354 | 17019 ft | 265 kts | 197° |
| 2026-05-08 14:59 | 43.19115 | 19.61555 | 17019 ft | 267 kts | 196° |
| 2026-05-08 14:59 | 43.15599 | 19.59950 | 17003 ft | 268 kts | 196° |
| 2026-05-08 14:59 | 43.13829 | 19.59147 | 16998 ft | 267 kts | 197° |
| 2026-05-08 15:00 | 43.12063 | 19.58349 | 17007 ft | 266 kts | 196° |
| 2026-05-08 15:00 | 43.10303 | 19.57555 | 17013 ft | 265 kts | 196° |
| 2026-05-08 15:00 | 43.08546 | 19.56760 | 17007 ft | 265 kts | 196° |
| 2026-05-08 15:00 | 43.06797 | 19.55963 | 16998 ft | 265 kts | 196° |
| 2026-05-08 15:01 | 43.05065 | 19.55178 | 17015 ft | 265 kts | 197° |
| 2026-05-08 15:01 | 43.03312 | 19.54387 | 17015 ft | 265 kts | 197° |
| 2026-05-08 15:01 | 43.01554 | 19.53597 | 17013 ft | 265 kts | 197° |
| 2026-05-08 15:01 | 42.99800 | 19.52805 | 17010 ft | 265 kts | 197° |
| 2026-05-08 15:02 | 42.98067 | 19.52022 | 17012 ft | 264 kts | 197° |
| 2026-05-08 15:02 | 42.96317 | 19.51232 | 17009 ft | 264 kts | 197° |
| 2026-05-08 15:02 | 42.94567 | 19.50445 | 17016 ft | 264 kts | 197° |
| 2026-05-08 15:02 | 42.93410 | 19.49923 | 17013 ft | 264 kts | 197° |
| 2026-05-08 15:03 | 42.91663 | 19.49136 | 17004 ft | 264 kts | 197° |
| 2026-05-08 15:03 | 42.89920 | 19.48351 | 17012 ft | 263 kts | 197° |
| 2026-05-08 15:03 | 42.88180 | 19.47566 | 17015 ft | 263 kts | 197° |
| 2026-05-08 15:03 | 42.86437 | 19.46781 | 17012 ft | 263 kts | 197° |
| 2026-05-08 15:04 | 42.84696 | 19.46000 | 16999 ft | 262 kts | 197° |
| 2026-05-08 15:04 | 42.82963 | 19.45225 | 17011 ft | 262 kts | 197° |
| 2026-05-08 15:04 | 42.81249 | 19.44457 | 17008 ft | 262 kts | 198° |
| 2026-05-08 15:04 | 42.79517 | 19.43679 | 17006 ft | 262 kts | 198° |
| 2026-05-08 15:05 | 42.77788 | 19.42904 | 17005 ft | 262 kts | 198° |
| 2026-05-08 15:05 | 42.76052 | 19.42125 | 17003 ft | 261 kts | 198° |
| 2026-05-08 15:05 | 42.74324 | 19.41354 | 16999 ft | 261 kts | 198° |
| 2026-05-08 15:05 | 42.72618 | 19.40591 | 16999 ft | 261 kts | 198° |
| 2026-05-08 15:06 | 42.70895 | 19.39818 | 16992 ft | 261 kts | 198° |
| 2026-05-08 15:06 | 42.69148 | 19.39037 | 16988 ft | 261 kts | 198° |
| 2026-05-08 15:06 | 42.67445 | 19.38276 | 16989 ft | 260 kts | 198° |
| 2026-05-08 15:06 | 42.65718 | 19.37505 | 16995 ft | 261 kts | 199° |
| 2026-05-08 15:07 | 42.63992 | 19.36734 | 16980 ft | 260 kts | 199° |
| 2026-05-08 15:07 | 42.62268 | 19.35967 | 16985 ft | 259 kts | 199° |
| 2026-05-08 15:07 | 42.60557 | 19.35204 | 16978 ft | 258 kts | 199° |
| 2026-05-08 15:07 | 42.58868 | 19.34454 | 16983 ft | 258 kts | 199° |
| 2026-05-08 15:08 | 42.57153 | 19.33690 | 16983 ft | 258 kts | 199° |
| 2026-05-08 15:08 | 42.55450 | 19.32932 | 16981 ft | 258 kts | 199° |
| 2026-05-08 15:08 | 42.53743 | 19.32173 | 16976 ft | 257 kts | 199° |
| 2026-05-08 15:08 | 42.52039 | 19.31412 | 16983 ft | 258 kts | 199° |
| 2026-05-08 15:09 | 42.50327 | 19.30654 | 16973 ft | 259 kts | 199° |
| 2026-05-08 15:09 | 42.48611 | 19.29893 | 16964 ft | 259 kts | 199° |
| 2026-05-08 15:09 | 42.46918 | 19.29142 | 16958 ft | 259 kts | 199° |
| 2026-05-08 15:09 | 42.45187 | 19.28372 | 16970 ft | 259 kts | 199° |
| 2026-05-08 15:10 | 42.43492 | 19.27619 | 16978 ft | 260 kts | 199° |
| 2026-05-08 15:10 | 42.41762 | 19.26854 | 16972 ft | 262 kts | 199° |
| 2026-05-08 15:10 | 42.40017 | 19.26081 | 16768 ft | 270 kts | 199° |
| 2026-05-08 15:10 | 42.38189 | 19.25286 | 16385 ft | 281 kts | 198° |
| 2026-05-08 15:11 | 42.36284 | 19.24552 | 16001 ft | 288 kts | 196° |
| 2026-05-08 15:11 | 42.34321 | 19.23864 | 15629 ft | 293 kts | 196° |
| 2026-05-08 15:11 | 42.32360 | 19.23166 | 15265 ft | 290 kts | 197° |
| 2026-05-08 15:11 | 42.30417 | 19.22463 | 14899 ft | 287 kts | 197° |
| 2026-05-08 15:12 | 42.28514 | 19.21776 | 14542 ft | 285 kts | 197° |
| 2026-05-08 15:12 | 42.26599 | 19.21086 | 14177 ft | 283 kts | 197° |
| 2026-05-08 15:12 | 42.24696 | 19.20401 | 13852 ft | 282 kts | 197° |
| 2026-05-08 15:12 | 42.22797 | 19.19716 | 13487 ft | 282 kts | 197° |
| 2026-05-08 15:13 | 42.20897 | 19.19036 | 13068 ft | 282 kts | 196° |
| 2026-05-08 15:13 | 42.18997 | 19.18352 | 12661 ft | 282 kts | 196° |
| 2026-05-08 15:13 | 42.17104 | 19.17673 | 12289 ft | 281 kts | 196° |
| 2026-05-08 15:13 | 42.15239 | 19.17004 | 11898 ft | 280 kts | 196° |
| 2026-05-08 15:14 | 42.13354 | 19.16327 | 11528 ft | 278 kts | 196° |
| 2026-05-08 15:14 | 42.11491 | 19.15663 | 11156 ft | 274 kts | 196° |
| 2026-05-08 15:14 | 42.09654 | 19.15005 | 10811 ft | 272 kts | 196° |
| 2026-05-08 15:14 | 42.07872 | 19.14304 | 10457 ft | 266 kts | 204° |
| 2026-05-08 15:15 | 42.06450 | 19.12783 | 10094 ft | 263 kts | 230° |
| 2026-05-08 15:15 | 42.05432 | 19.10735 | 9706 ft | 263 kts | 241° |
| 2026-05-08 15:15 | 42.04696 | 19.08469 | 9318 ft | 263 kts | 248° |
| 2026-05-08 15:15 | 42.04088 | 19.06169 | 9129 ft | 257 kts | 250° |
| 2026-05-08 15:16 | 42.03506 | 19.03942 | 9054 ft | 248 kts | 249° |
| 2026-05-08 15:16 | 42.02917 | 19.01797 | 9010 ft | 240 kts | 248° |
| 2026-05-08 15:16 | 42.02320 | 18.99739 | 8986 ft | 233 kts | 247° |
| 2026-05-08 15:16 | 42.01735 | 18.97740 | 8784 ft | 235 kts | 248° |
| 2026-05-08 15:17 | 42.01502 | 18.95567 | 8422 ft | 242 kts | 279° |
| 2026-05-08 15:17 | 42.02240 | 18.93539 | 8084 ft | 248 kts | 314° |
| 2026-05-08 15:17 | 42.03704 | 18.92317 | 7736 ft | 249 kts | 340° |
| 2026-05-08 15:17 | 42.05356 | 18.91554 | 7396 ft | 253 kts | 345° |
| 2026-05-08 15:18 | 42.07041 | 18.90832 | 7050 ft | 255 kts | 345° |
| 2026-05-08 15:18 | 42.08716 | 18.90083 | 6708 ft | 258 kts | 344° |
| 2026-05-08 15:18 | 42.10409 | 18.89251 | 6366 ft | 259 kts | 343° |
| 2026-05-08 15:18 | 42.12090 | 18.88384 | 5988 ft | 259 kts | 343° |
| 2026-05-08 15:19 | 42.13779 | 18.87521 | 5635 ft | 259 kts | 343° |
| 2026-05-08 15:19 | 42.15464 | 18.86655 | 5285 ft | 259 kts | 342° |
| 2026-05-08 15:19 | 42.17156 | 18.85778 | 4925 ft | 259 kts | 342° |
| 2026-05-08 15:19 | 42.18823 | 18.84921 | 4558 ft | 256 kts | 342° |
| 2026-05-08 15:20 | 42.20377 | 18.84121 | 4218 ft | 223 kts | 342° |
| 2026-05-08 15:20 | 42.21747 | 18.83410 | 3922 ft | 199 kts | 342° |
| 2026-05-08 15:20 | 42.22977 | 18.82774 | 3671 ft | 177 kts | 342° |
| 2026-05-08 15:20 | 42.24071 | 18.82204 | 3447 ft | 162 kts | 342° |
| 2026-05-08 15:21 | 42.25076 | 18.81669 | 3240 ft | 148 kts | 342° |
| 2026-05-08 15:21 | 42.25986 | 18.81180 | 3051 ft | 135 kts | 342° |
| 2026-05-08 15:21 | 42.26801 | 18.80743 | 2873 ft | 120 kts | 342° |
| 2026-05-08 15:21 | 42.27580 | 18.80333 | 2723 ft | 119 kts | 342° |
| 2026-05-08 15:22 | 42.28340 | 18.79937 | 2660 ft | 115 kts | 341° |
| 2026-05-08 15:22 | 42.29110 | 18.79535 | 2493 ft | 121 kts | 341° |
| 2026-05-08 15:22 | 42.29915 | 18.79147 | 2304 ft | 124 kts | 341° |
| 2026-05-08 15:22 | 42.30725 | 18.78754 | 2102 ft | 126 kts | 340° |
| 2026-05-08 15:23 | 42.31543 | 18.78343 | 1870 ft | 124 kts | 338° |
| 2026-05-08 15:23 | 42.32339 | 18.77923 | 1654 ft | 120 kts | 335° |
| 2026-05-08 15:23 | 42.33116 | 18.77494 | 1523 ft | 122 kts | 336° |
| 2026-05-08 15:23 | 42.33901 | 18.77074 | 1419 ft | 123 kts | 336° |
| 2026-05-08 15:24 | 42.34705 | 18.76645 | 1224 ft | 124 kts | 337° |
| 2026-05-08 15:24 | 42.35512 | 18.76224 | 1042 ft | 124 kts | 338° |
| 2026-05-08 15:24 | 42.36322 | 18.75812 | 860 ft | 124 kts | 339° |
| 2026-05-08 15:24 | 42.37123 | 18.75406 | 675 ft | 122 kts | 338° |
| 2026-05-08 15:25 | 42.37880 | 18.74938 | 513 ft | 116 kts | 328° |
| 2026-05-08 15:25 | 42.38557 | 18.74366 | 376 ft | 113 kts | 326° |
| 2026-05-08 15:25 | 42.39211 | 18.73772 | 191 ft | 114 kts | 323° |
| 2026-05-08 15:25 | 42.39805 | 18.73108 | 47 ft | 110 kts | 317° |
| 2026-05-08 15:26 | 42.40310 | 18.72508 | 38 ft | 84 kts | 319° |
| 2026-05-08 15:26 | 42.40639 | 18.72124 | 33 ft | 47 kts | 320° |
| 2026-05-08 15:26 | 42.40844 | 18.71883 | 35 ft | 27 kts | 318° |
| 2026-05-08 15:26 | 42.40939 | 18.71789 | 38 ft | 13 kts | 356° |
| 2026-05-08 15:27 | 42.40992 | 18.71844 | 34 ft | 6 kts | 46° |
| 2026-05-08 15:27 | 42.40993 | 18.71845 | 34 ft | 0 kts | 45° |
| 2026-05-08 15:27 | 42.40995 | 18.71848 | 34 ft | 3 kts | 43° |
| 2026-05-08 15:27 | 42.41034 | 18.71844 | 36 ft | 9 kts | 325° |
| 2026-05-08 15:28 | 42.41091 | 18.71777 | 35 ft | 11 kts | 319° |
| 2026-05-08 15:28 | 42.41125 | 18.71764 | 39 ft | 5 kts | 45° |
| 2026-05-08 15:28 | 42.41126 | 18.71794 | 36 ft | 3 kts | 166° |
| 2026-05-08 15:28 | 42.41112 | 18.71799 | 35 ft | 0 kts | 145° |
| 2026-05-08 15:29 | 42.41109 | 18.71802 | 35 ft | 0 kts | 140° |